Weather at Hosea Kutako International Airport

Public forecast

Using degrees Celsius for public forecast. Weather courtesy of forecast.io.

Current aviation weather report (METAR) for Hosea Kutako International Airport

Report is more than 6 hours old.

Retrieved 2020/10/29 18:00 UTC (9 hours ago):

FYWH 291800Z 13006KT 9999 VC RA FEW035CB BKN090 19/15 Q1024 BECMG -TSRA

Aviation forecast (TAF) for Hosea Kutako International Airport

Retrieved 2020-10-30 00:00 UTC (3 hours ago):

TAF FYWH 292200Z 3000/3100 22005KT 9999 FEW030CB BKN090 BECMG 3005/3007 12010KT CAVOK BECMG 3008/3010 9999 SCT045